OVE weather

Oroville Municipal Airport
Oroville, California, United States

Public forecast

Using degrees Fahrenheit for public forecast. Weather courtesy of forecast.io.

METAR (pilot weather report)

Retrieved 2019/08/22 15:53 UTC (1 hour ago):

KOVE 221553Z AUTO 00000KT 10SM CLR 26/16 A2980 RMK AO2 SLP090 T02560156

TAF (pilot weather forecast)

Closest forecast is Beale Air Force Base, 22.8 nm (42.2 km) SSE. Retrieved 2019/08/22 11:06 UTC (6 hours ago):

TAF TAF KBAB 221101Z 2211/2317 VRB06KT 9999 FEW250 QNH2977INS BECMG 2220/2221 21009KT 9999 FEW250 QNH2974INS TX37/2219Z TN19/2309Z